createdAt,value
2022-11-03T07:56:26.400Z,100988.13
2022-11-03T07:59:01.481Z,100986.22
2022-11-03T08:01:36.613Z,100990.97
2022-11-03T08:04:13.452Z,100986.72
2022-11-03T08:06:41.406Z,100988.06
2022-11-03T08:09:10.119Z,100972.25
2022-11-03T08:11:38.774Z,100969.78
2022-11-03T08:14:07.159Z,100964.69
2022-11-03T08:16:36.201Z,100973.59
2022-11-03T08:19:05.589Z,100979.88
2022-11-03T08:21:35.634Z,100972.31
2022-11-03T08:33:03.573Z,100975.47
2022-11-03T08:35:33.982Z,100971.50
2022-11-03T08:38:01.871Z,100970.50
2022-11-03T08:40:29.817Z,100967.81
2022-11-03T08:42:58.206Z,100963.97
2022-11-03T08:45:25.881Z,100963.41
2022-11-03T08:47:56.657Z,100961.28
2022-11-03T08:50:24.797Z,100958.69
2022-11-03T08:52:52.740Z,100967.72
2022-11-03T08:55:21.805Z,100976.63
2022-11-03T08:57:49.763Z,100980.41
2022-11-03T09:00:19.051Z,100977.13
2022-11-03T09:02:47.143Z,100989.97
2022-11-03T09:05:15.363Z,100988.00
2022-11-03T09:10:35.718Z,101000.53
2022-11-03T09:13:07.487Z,100999.00
2022-11-03T09:15:36.185Z,100990.59
2022-11-03T09:18:04.408Z,100999.09
2022-11-03T09:20:32.900Z,100997.81
2022-11-03T09:23:01.906Z,101005.63
2022-11-03T09:25:30.060Z,101008.75
2022-11-03T09:27:58.747Z,100998.13
2022-11-03T09:30:26.648Z,101011.72
2022-11-03T09:32:54.519Z,100999.25
2022-11-03T09:35:28.215Z,101005.72
2022-11-03T09:37:56.368Z,101009.38
2022-11-03T09:40:25.756Z,101004.19
2022-11-03T09:42:54.945Z,101002.75
2022-11-03T09:45:23.543Z,101001.50
2022-11-03T09:47:52.924Z,101014.09
2022-11-03T09:50:21.754Z,101010.66
2022-11-03T09:52:55.699Z,101010.03
2022-11-03T09:55:28.059Z,101019.19
2022-11-03T09:58:01.238Z,101014.25
2022-11-03T10:00:29.355Z,101012.69
2022-11-03T10:02:58.169Z,101012.84
2022-11-03T10:05:29.121Z,101008.09
2022-11-03T10:08:04.321Z,101012.09
2022-11-03T10:10:37.469Z,101011.72
2022-11-03T10:13:16.669Z,101000.28
2022-11-03T10:15:48.792Z,101006.19
2022-11-03T10:18:19.226Z,100996.53
2022-11-03T10:20:47.253Z,101002.47
2022-11-03T10:23:16.252Z,101001.56
2022-11-03T10:25:47.238Z,100996.28
2022-11-03T10:28:18.603Z,100998.44
2022-11-03T10:31:17.542Z,100998.50
2022-11-03T10:33:54.915Z,100987.59
2022-11-03T10:36:26.650Z,100985.91
2022-11-03T10:38:57.883Z,100983.19
2022-11-03T10:41:33.439Z,100982.38
2022-11-03T10:44:13.511Z,100981.50
2022-11-03T10:46:50.796Z,100971.31
2022-11-03T10:49:21.937Z,100974.81
2022-11-03T11:25:09.905Z,100928.88
2022-11-03T11:27:38.526Z,100935.31
2022-11-03T11:30:15.338Z,100934.47
2022-11-03T11:32:43.618Z,100917.94
2022-11-03T11:35:25.483Z,100925.28
2022-11-03T11:37:55.155Z,100908.53
2022-11-03T11:40:30.285Z,100904.06
2022-11-03T11:43:05.030Z,100907.66
2022-11-03T11:46:10.336Z,100899.59
2022-11-03T11:48:38.505Z,100890.03
2022-11-03T11:51:13.236Z,100898.34
2022-11-03T11:53:48.157Z,100894.75
2022-11-03T11:56:19.873Z,100897.69
2022-11-03T11:58:55.386Z,100897.28
2022-11-03T12:01:38.013Z,100880.81
2022-11-03T12:06:46.548Z,100878.97
2022-11-03T12:09:25.162Z,100871.25
2022-11-03T12:11:58.404Z,100865.06
2022-11-03T12:14:41.209Z,100857.88
2022-11-03T12:17:17.843Z,100861.59
2022-11-03T12:19:49.621Z,100862.50
2022-11-03T12:22:29.756Z,100851.97
2022-11-03T12:25:02.467Z,100867.56
2022-11-03T12:27:30.899Z,100860.00
2022-11-03T12:30:05.682Z,100858.75
2022-11-03T12:32:35.359Z,100856.06
2022-11-03T12:35:10.687Z,100849.72
2022-11-03T12:37:39.687Z,100833.00
2022-11-03T12:40:08.604Z,100833.88
2022-11-03T12:42:36.672Z,100823.06
2022-11-03T12:45:05.174Z,100832.50
2022-11-03T12:47:33.101Z,100811.56
2022-11-03T12:50:01.189Z,100822.75
2022-11-03T12:52:29.315Z,100811.72
2022-11-03T12:54:57.814Z,100818.41
2022-11-03T12:57:26.606Z,100819.28
2022-11-03T12:59:54.843Z,100811.84
2022-11-03T13:02:24.212Z,100819.53
2022-11-03T13:04:53.030Z,100818.06
2022-11-03T13:07:26.795Z,100811.78
2022-11-03T13:09:58.287Z,100818.69
2022-11-03T13:12:32.381Z,100814.03
2022-11-03T13:15:06.294Z,100818.03
2022-11-03T13:17:59.137Z,100813.56
2022-11-03T13:20:25.166Z,100808.16
2022-11-03T13:22:53.078Z,100795.63
2022-11-03T13:25:21.388Z,100789.91
2022-11-03T13:27:54.042Z,100778.63
2022-11-03T13:30:23.127Z,100781.78
2022-11-03T13:32:51.472Z,100763.81
2022-11-03T13:35:20.038Z,100767.19
2022-11-03T13:37:48.174Z,100762.81
2022-11-03T13:40:50.278Z,100752.97
2022-11-03T13:43:07.564Z,100761.47
2022-11-03T13:45:36.272Z,100759.41
2022-11-03T13:51:19.760Z,100757.59
2022-11-03T13:59:27.549Z,100743.03
2022-11-03T14:04:44.764Z,100745.47
2022-11-03T14:07:12.826Z,100739.38
2022-11-03T14:09:43.845Z,100733.19
2022-11-03T14:12:30.344Z,100744.84
2022-11-03T14:15:02.890Z,100745.47
2022-11-03T14:17:30.805Z,100748.94
2022-11-03T14:20:02.852Z,100747.00
2022-11-03T14:22:32.568Z,100742.78
2022-11-03T14:25:01.397Z,100736.72
2022-11-03T14:27:29.497Z,100743.31
2022-11-03T14:29:57.542Z,100742.69
2022-11-03T14:32:26.382Z,100745.13
2022-11-03T14:34:55.467Z,100737.66
2022-11-03T14:37:25.850Z,100732.94
2022-11-03T14:39:54.649Z,100730.25
2022-11-03T14:42:22.889Z,100731.03
2022-11-03T14:44:50.753Z,100727.84
2022-11-03T14:47:22.014Z,100718.41
2022-11-03T14:49:51.369Z,100709.63
2022-11-03T14:52:19.694Z,100714.41
2022-11-03T14:54:47.586Z,100714.97
2022-11-03T14:57:20.929Z,100723.19
2022-11-03T14:59:53.536Z,100722.50
2022-11-03T15:02:21.742Z,100718.88
2022-11-03T15:04:49.781Z,100715.66
2022-11-03T15:07:17.796Z,100710.47
2022-11-03T15:09:45.724Z,100712.56
2022-11-03T15:12:13.495Z,100699.94
2022-11-03T15:14:42.305Z,100687.56
2022-11-03T15:17:11.649Z,100678.91
2022-11-03T15:19:39.717Z,100666.13
2022-11-03T15:22:07.751Z,100663.28
2022-11-03T15:27:37.285Z,100644.00
2022-11-03T15:30:06.008Z,100624.09
2022-11-03T15:32:36.517Z,100613.28
2022-11-03T15:35:08.080Z,100599.31
2022-11-03T15:37:37.834Z,100599.91
2022-11-03T15:40:06.371Z,100596.06
2022-11-03T16:00:13.474Z,100522.69
2022-11-03T16:02:45.060Z,100518.53
2022-11-03T16:05:14.200Z,100501.94
2022-11-03T16:07:44.643Z,100501.56
2022-11-03T16:10:16.728Z,100492.47
2022-11-03T16:21:24.062Z,100459.31
2022-11-03T16:23:54.337Z,100476.28
2022-11-03T16:26:24.133Z,100463.16
2022-11-03T16:28:53.223Z,100482.50
2022-11-03T16:31:23.386Z,100465.28
2022-11-03T16:33:52.865Z,100454.13
2022-11-03T16:39:07.653Z,100434.25
2022-11-03T16:41:42.644Z,100421.63
2022-11-03T16:44:14.324Z,100403.94
2022-11-03T16:55:23.982Z,100387.44
2022-11-03T16:57:52.685Z,100387.91
2022-11-03T17:00:22.267Z,100392.78
2022-11-03T17:02:49.976Z,100385.34
2022-11-03T17:05:21.089Z,100379.69
2022-11-03T17:07:54.043Z,100378.91
2022-11-03T17:10:26.887Z,100376.09
2022-11-03T17:12:56.550Z,100375.19
2022-11-03T17:15:26.393Z,100366.72
2022-11-03T17:17:55.532Z,100368.56
2022-11-03T17:20:25.086Z,100359.53
2022-11-03T17:22:53.084Z,100360.28
2022-11-03T17:25:21.030Z,100354.22
2022-11-03T17:28:03.180Z,100352.94
2022-11-03T17:30:38.231Z,100348.81
2022-11-03T17:33:15.015Z,100348.56
2022-11-03T17:35:46.363Z,100341.06
2022-11-03T17:38:17.472Z,100328.47
2022-11-03T17:40:48.243Z,100319.44
2022-11-03T17:43:23.702Z,100314.38
2022-11-03T17:45:52.596Z,100313.41
2022-11-03T17:48:23.576Z,100321.16
2022-11-03T17:50:54.085Z,100312.78
2022-11-03T17:53:31.238Z,100322.91
2022-11-03T17:56:28.327Z,100316.22
2022-11-03T17:58:51.602Z,100314.50
2022-11-03T18:01:29.064Z,100310.06
2022-11-03T18:04:49.683Z,100307.97
2022-11-03T18:07:27.037Z,100297.97
2022-11-03T18:09:55.881Z,100292.75
2022-11-03T18:12:48.556Z,100281.00
2022-11-03T18:15:22.137Z,100269.13
2022-11-03T18:17:52.182Z,100265.84
2022-11-03T18:20:30.459Z,100260.13
2022-11-03T18:23:11.899Z,100252.34
2022-11-03T18:25:40.071Z,100240.91
2022-11-03T18:28:08.765Z,100232.94
2022-11-03T18:30:41.836Z,100226.78
2022-11-03T18:33:23.924Z,100221.81
2022-11-03T18:35:53.754Z,100213.66
2022-11-03T18:38:29.396Z,100208.22
2022-11-03T18:41:24.191Z,100192.06
2022-11-03T18:43:58.255Z,100190.31
2022-11-03T18:46:27.455Z,100194.03
2022-11-03T18:48:57.371Z,100198.00
2022-11-03T18:51:41.327Z,100188.25
2022-11-03T18:54:16.926Z,100181.09
2022-11-03T18:56:46.415Z,100174.41
2022-11-03T18:59:42.044Z,100173.16
2022-11-03T19:02:28.452Z,100166.25
2022-11-03T19:04:59.538Z,100159.69
2022-11-03T19:10:18.626Z,100158.09
2022-11-03T19:18:31.466Z,100130.00
2022-11-03T19:20:58.621Z,100130.84
2022-11-03T19:23:25.853Z,100126.06
2022-11-03T19:25:58.388Z,100128.06
2022-11-03T19:28:29.717Z,100119.03
2022-11-03T19:30:58.212Z,100127.34
2022-11-03T19:33:29.564Z,100116.25
2022-11-03T19:35:58.385Z,100117.00
2022-11-03T19:38:27.441Z,100112.59
2022-11-03T19:41:25.692Z,100119.03
2022-11-03T19:43:52.882Z,100110.31
2022-11-03T19:46:20.208Z,100112.66
2022-11-03T19:48:47.945Z,100119.28
2022-11-03T19:51:14.938Z,100126.06
2022-11-03T19:53:47.129Z,100128.22
2022-11-03T19:56:17.206Z,100124.00
2022-11-03T19:58:45.619Z,100116.00
2022-11-03T20:01:14.766Z,100122.16
2022-11-03T20:04:13.446Z,100122.88
2022-11-03T20:06:41.161Z,100119.09
2022-11-03T20:09:17.358Z,100128.50
2022-11-03T20:11:46.031Z,100121.69
2022-11-03T20:14:19.295Z,100118.63
2022-11-03T20:16:46.680Z,100117.00
2022-11-03T20:19:15.683Z,100109.13
2022-11-03T20:21:42.723Z,100120.97
2022-11-03T20:24:59.675Z,100116.38
2022-11-03T20:27:27.189Z,100113.81
2022-11-03T20:29:54.619Z,100108.13
2022-11-03T20:32:21.855Z,100117.25
2022-11-03T20:34:48.849Z,100115.53
2022-11-03T20:37:19.115Z,100106.91
2022-11-03T20:39:47.298Z,100110.63
2022-11-03T20:42:26.201Z,100114.59
2022-11-03T20:44:53.465Z,100113.13
2022-11-03T20:47:22.336Z,100112.88
2022-11-03T20:50:14.292Z,100110.81
2022-11-03T20:52:44.762Z,100114.84
2022-11-03T20:55:25.713Z,100126.69
2022-11-03T20:57:54.187Z,100122.25
2022-11-03T21:00:27.206Z,100116.56
2022-11-03T21:02:58.575Z,100105.84
2022-11-03T21:05:29.202Z,100120.53
2022-11-03T21:07:56.972Z,100122.03
2022-11-03T21:10:24.211Z,100120.72
2022-11-03T21:13:22.659Z,100118.13
2022-11-03T21:19:17.829Z,100125.25
2022-11-03T21:21:44.819Z,100119.88
2022-11-03T21:24:12.654Z,100110.84
2022-11-03T21:26:41.210Z,100113.97
2022-11-03T21:29:08.157Z,100114.44
2022-11-03T21:31:35.284Z,100115.94
2022-11-03T21:34:02.183Z,100120.00
2022-11-03T21:36:30.146Z,100108.28
2022-11-03T21:38:57.126Z,100111.25
2022-11-03T21:41:43.541Z,100113.47
2022-11-03T21:44:16.941Z,100098.53
2022-11-03T21:46:44.777Z,100099.91
2022-11-03T21:52:32.140Z,100089.66
2022-11-03T21:55:00.423Z,100097.19
2022-11-03T21:57:28.482Z,100088.53
2022-11-03T22:00:01.110Z,100083.59
2022-11-03T22:02:30.121Z,100089.91
2022-11-03T22:04:57.790Z,100073.88
2022-11-03T22:07:24.978Z,100078.41
2022-11-03T22:09:55.381Z,100074.97
2022-11-03T22:12:22.331Z,100071.13
2022-11-03T22:15:07.881Z,100071.75
2022-11-03T22:17:34.909Z,100071.97
2022-11-03T22:20:20.189Z,100065.69
2022-11-03T22:23:05.742Z,100065.69
2022-11-03T22:26:18.786Z,100064.06
2022-11-03T22:28:45.663Z,100059.47
2022-11-03T22:31:31.080Z,100059.97
2022-11-03T22:34:16.490Z,100057.34
2022-11-03T22:36:43.345Z,100053.91
2022-11-03T22:39:28.723Z,100034.16
2022-11-03T22:42:14.083Z,100041.53
2022-11-03T22:44:59.475Z,100032.91
2022-11-03T22:47:27.408Z,100031.94
2022-11-03T22:49:55.693Z,100018.03
2022-11-03T22:52:22.929Z,100018.88
2022-11-03T22:54:49.706Z,100025.03
2022-11-03T22:57:16.977Z,100020.53
2022-11-03T22:59:45.717Z,100022.53
2022-11-03T23:02:12.651Z,100013.38
2022-11-03T23:04:39.647Z,100017.56
2022-11-03T23:07:06.981Z,100017.56
2022-11-03T23:09:34.801Z,99997.56
2022-11-03T23:12:01.765Z,100000.16
2022-11-03T23:14:48.665Z,99998.56
2022-11-03T23:17:15.671Z,100018.66
2022-11-03T23:22:52.730Z,100011.03
2022-11-03T23:25:19.839Z,100009.22
2022-11-03T23:27:46.796Z,100002.88
2022-11-03T23:30:13.916Z,100006.84
2022-11-03T23:32:40.981Z,100008.88
2022-11-03T23:35:08.587Z,100010.63
2022-11-03T23:37:35.542Z,100021.88
2022-11-03T23:40:02.549Z,100024.44
2022-11-03T23:42:31.815Z,100019.16
2022-11-03T23:45:16.986Z,100021.00
2022-11-03T23:48:03.587Z,100010.81
2022-11-03T23:50:32.097Z,99995.78
2022-11-03T23:52:58.898Z,99990.47
2022-11-03T23:55:25.902Z,99984.47
2022-11-03T23:58:17.147Z,99960.16
